Time;durP1;ratioP1;P1;durP2;ratioP2;P2;SDS_P1;SDS_P2;PMS_P1;PMS_P2;Temp;Humidity;BMP_temperature;BMP_pressure;BME280_temperature;BME280_humidity;BME280_pressure;Samples;Min_cycle;Max_cycle;Signal;HPM_P1;HPM_P2
2021/12/07 00:01:27;;;;;;;;;;;4.00;94.10;;;;;;5088554;28;19912;-70
2021/12/07 00:03:53;;;;;;;;;;;4.00;94.10;;;;;;5090676;28;20285;-70
2021/12/07 00:06:19;;;;;;;;;;;4.00;94.10;;;;;;5099557;28;19916;-70
2021/12/07 00:08:44;;;;;;;;;;;4.00;94.10;;;;;;5094133;28;20082;-70
2021/12/07 00:11:11;;;;;;;;;;;4.00;94.10;;;;;;5089693;28;19919;-70
2021/12/07 00:13:38;;;;;;;;;;;4.00;94.10;;;;;;5094829;28;20037;-70
2021/12/07 00:16:05;;;;;;;;;;;4.00;94.10;;;;;;5089273;28;19979;-70
2021/12/07 00:18:31;;;;;;;;;;;4.00;94.10;;;;;;5091113;28;20271;-71
2021/12/07 00:20:56;;;;;;;;;;;4.00;94.10;;;;;;5090180;28;19912;-70
2021/12/07 00:23:22;;;;;;;;;;;4.00;94.10;;;;;;5088399;28;19923;-71
2021/12/07 00:25:47;;;;;;;;;;;4.00;94.10;;;;;;5092082;28;20542;-70
2021/12/07 00:28:13;;;;;;;;;;;4.00;94.10;;;;;;5089973;28;19912;-70
2021/12/07 00:30:39;;;;;;;;;;;4.00;94.10;;;;;;5087602;28;19912;-70
2021/12/07 00:33:11;;;;;;;;;;;4.00;94.10;;;;;;5093757;28;19918;-70
2021/12/07 00:35:37;;;;;;;;;;;4.00;94.10;;;;;;5092011;28;19999;-70
2021/12/07 00:38:10;;;;;;;;;;;4.00;94.10;;;;;;5099689;28;20006;-70
2021/12/07 00:40:36;;;;;;;;;;;4.00;94.10;;;;;;5091521;28;19959;-70
2021/12/07 00:43:02;;;;;;;;;;;4.00;94.10;;;;;;5091776;28;20345;-70
2021/12/07 00:45:31;;;;;;;;;;;4.00;94.10;;;;;;5091485;28;19935;-70
2021/12/07 00:47:57;;;;;;;;;;;4.00;94.10;;;;;;5100860;28;19951;-70
2021/12/07 00:50:23;;;;;;;;;;;4.00;94.10;;;;;;5092072;28;19951;-70
2021/12/07 00:52:49;;;;;;;;;;;4.00;94.10;;;;;;5103250;28;20406;-70
2021/12/07 00:55:17;;;;;;;;;;;4.00;94.10;;;;;;5091852;28;20008;-70
2021/12/07 00:57:42;;;;;;;;;;;4.00;94.10;;;;;;5096829;28;19914;-70
2021/12/07 01:00:13;;;;;;;;;;;4.00;94.10;;;;;;5089520;28;19912;-70
2021/12/07 01:02:38;;;;;;;;;;;4.00;94.10;;;;;;5080683;28;19920;-70
2021/12/07 01:05:12;;;;;;;;;;;4.00;94.10;;;;;;5091927;28;20021;-70
2021/12/07 01:26:48;;;;;;;;;;;4.10;94.20;;;;;;5091203;28;20007;-70
2021/12/07 01:29:15;;;;;;;;;;;4.00;94.10;;;;;;5096861;28;19970;-70
2021/12/07 01:31:52;;;;;;;;;;;4.00;94.10;;;;;;5105646;28;20241;-71
2021/12/07 01:39:54;;;;;;;;;;;4.00;94.10;;;;;;5098701;28;19926;-70
2021/12/07 01:47:58;;;;;;;;;;;;;;;;;;;;;
2021/12/07 01:50:33;;;;;;;;;;;4.00;94.10;;;;;;5092137;28;19999;-70
2021/12/07 02:00:55;;;;;;;;;;;4.00;94.20;;;;;;5090464;28;19965;-70
2021/12/07 02:03:21;;;;;;;;;;;4.00;94.10;;;;;;5108729;28;19911;-70
2021/12/07 02:05:47;;;;;;;;;;;4.00;94.20;;;;;;5090906;28;19920;-70
2021/12/07 02:08:13;;;;;;;;;;;4.00;94.20;;;;;;5093802;28;19966;-70
2021/12/07 02:10:38;;;;;;;;;;;4.00;94.20;;;;;;5092359;28;19916;-70
2021/12/07 02:13:17;;;;;;;;;;;4.00;94.20;;;;;;5096156;28;20305;-70
2021/12/07 02:15:43;;;;;;;;;;;4.00;94.20;;;;;;5096038;28;19923;-70
2021/12/07 02:18:08;;;;;;;;;;;4.00;94.20;;;;;;5095692;28;20282;-70
2021/12/07 02:20:34;;;;;;;;;;;4.00;94.20;;;;;;5098439;28;19915;-70
2021/12/07 02:23:00;;;;;;;;;;;4.00;94.20;;;;;;5102144;28;19912;-70
2021/12/07 02:25:26;;;;;;;;;;;4.00;94.30;;;;;;5094105;28;20342;-70
2021/12/07 02:27:53;;;;;;;;;;;4.00;94.20;;;;;;5094925;28;19930;-70
2021/12/07 02:30:19;;;;;;;;;;;3.90;94.20;;;;;;5091662;28;20289;-70
2021/12/07 02:32:45;;;;;;;;;;;3.90;94.20;;;;;;5089771;28;20272;-70
2021/12/07 02:35:13;;;;;;;;;;;3.90;94.20;;;;;;5087560;28;19960;-70
2021/12/07 02:37:39;;;;;;;;;;;3.90;94.20;;;;;;5100865;28;19916;-70
2021/12/07 02:40:05;;;;;;;;;;;3.90;94.20;;;;;;5092340;28;20380;-70
2021/12/07 02:42:31;;;;;;;;;;;3.90;94.20;;;;;;5091451;28;19966;-70
2021/12/07 02:44:56;;;;;;;;;;;3.90;94.20;;;;;;5091272;28;19943;-70
2021/12/07 02:47:22;;;;;;;;;;;3.90;94.20;;;;;;5089549;28;19927;-71
2021/12/07 02:49:47;;;;;;;;;;;3.90;94.20;;;;;;5094777;28;19933;-70
2021/12/07 02:52:13;;;;;;;;;;;3.90;94.20;;;;;;5089715;28;20330;-70
2021/12/07 02:54:44;;;;;;;;;;;3.90;94.20;;;;;;5093699;28;19908;-70
2021/12/07 02:57:10;;;;;;;;;;;3.90;94.20;;;;;;5094566;28;19927;-71
2021/12/07 02:59:39;;;;;;;;;;;3.90;94.20;;;;;;5096394;28;19908;-70
2021/12/07 03:02:08;;;;;;;;;;;3.90;94.20;;;;;;5092606;28;19990;-71
2021/12/07 03:04:39;;;;;;;;;;;3.90;94.10;;;;;;5091041;28;19922;-70
2021/12/07 03:09:59;;;;;;;;;;;3.90;94.10;;;;;;5094883;28;19929;-70
2021/12/07 03:28:27;;;;;;;;;;;3.90;94.20;;;;;;5107228;28;20007;-70
2021/12/07 03:30:53;;;;;;;;;;;3.90;94.20;;;;;;5094016;28;19947;-70
2021/12/07 03:33:18;;;;;;;;;;;3.90;94.10;;;;;;5097110;28;19960;-70
2021/12/07 03:35:44;;;;;;;;;;;3.90;94.10;;;;;;5090903;28;20435;-70
2021/12/07 03:38:10;;;;;;;;;;;3.90;94.10;;;;;;5093431;28;19915;-70
2021/12/07 03:40:36;;;;;;;;;;;3.90;94.10;;;;;;5105828;27;19962;-71
2021/12/07 03:43:03;;;;;;;;;;;3.90;94.20;;;;;;5090526;28;19921;-70
2021/12/07 03:45:29;;;;;;;;;;;3.90;94.10;;;;;;5090912;28;19923;-70
2021/12/07 03:47:55;;;;;;;;;;;3.90;94.10;;;;;;5133108;27;20757;-70
2021/12/07 03:50:21;;;;;;;;;;;3.90;94.10;;;;;;5098802;28;19911;-70
2021/12/07 03:52:47;;;;;;;;;;;3.90;94.10;;;;;;5096776;28;19924;-70
2021/12/07 03:55:13;;;;;;;;;;;3.90;94.10;;;;;;5092665;28;19912;-70
2021/12/07 03:57:38;;;;;;;;;;;3.90;94.10;;;;;;5092048;28;19922;-70
2021/12/07 04:00:07;;;;;;;;;;;3.90;94.10;;;;;;5099451;28;19915;-70
2021/12/07 04:02:37;;;;;;;;;;;3.90;94.10;;;;;;5093491;28;19995;-70
2021/12/07 04:05:08;;;;;;;;;;;3.90;94.10;;;;;;5089870;28;19913;-70
2021/12/07 04:07:34;;;;;;;;;;;3.90;94.10;;;;;;5089711;28;19995;-70
2021/12/07 04:09:59;;;;;;;;;;;3.90;94.10;;;;;;5091832;28;20002;-70
2021/12/07 04:12:25;;;;;;;;;;;3.90;94.20;;;;;;5092770;28;20426;-69
2021/12/07 04:14:50;;;;;;;;;;;3.90;94.10;;;;;;5102835;28;19946;-69
2021/12/07 04:17:18;;;;;;;;;;;3.90;94.10;;;;;;5088934;28;21285;-69
2021/12/07 04:19:43;;;;;;;;;;;3.90;94.10;;;;;;5089994;28;19915;-70
2021/12/07 04:22:09;;;;;;;;;;;3.90;94.10;;;;;;5090863;28;19961;-69
2021/12/07 04:24:34;;;;;;;;;;;3.90;94.10;;;;;;5105693;28;19919;-69
2021/12/07 04:27:00;;;;;;;;;;;3.90;94.20;;;;;;5090679;28;19923;-70
2021/12/07 04:29:25;;;;;;;;;;;3.90;94.20;;;;;;5091821;28;20299;-69
2021/12/07 04:31:51;;;;;;;;;;;4.00;94.20;;;;;;5092292;28;19915;-69
2021/12/07 04:34:16;;;;;;;;;;;3.90;94.20;;;;;;5093230;28;19909;-69
2021/12/07 04:36:42;;;;;;;;;;;3.90;94.10;;;;;;5092125;28;19955;-69
2021/12/07 04:39:09;;;;;;;;;;;3.90;94.10;;;;;;5095904;28;19942;-69
2021/12/07 04:41:35;;;;;;;;;;;3.90;94.20;;;;;;5087975;28;20003;-70
2021/12/07 04:44:03;;;;;;;;;;;4.00;94.20;;;;;;5093813;28;19927;-69
2021/12/07 04:46:36;;;;;;;;;;;4.00;94.20;;;;;;5092328;28;19952;-69
2021/12/07 05:00:01;;;;;;;;;;;4.00;94.20;;;;;;5091347;28;19920;-70
2021/12/07 05:02:27;;;;;;;;;;;4.00;94.20;;;;;;5103880;28;19955;-69
2021/12/07 05:04:53;;;;;;;;;;;4.00;94.20;;;;;;5087146;28;19939;-69
2021/12/07 05:07:27;;;;;;;;;;;4.00;94.20;;;;;;5093120;28;19974;-69
2021/12/07 05:12:32;;;;;;;;;;;4.00;94.20;;;;;;5095621;28;19915;-69
2021/12/07 05:39:05;;;;;;;;;;;4.00;94.40;;;;;;5094029;28;20284;-70
2021/12/07 05:41:31;;;;;;;;;;;4.00;94.40;;;;;;5096159;28;20539;-69
2021/12/07 05:43:57;;;;;;;;;;;4.00;94.40;;;;;;5086489;28;19993;-69
2021/12/07 05:46:22;;;;;;;;;;;4.00;94.40;;;;;;5092544;28;19913;-69
2021/12/07 05:48:48;;;;;;;;;;;4.00;94.40;;;;;;5095990;28;19920;-69
2021/12/07 05:51:13;;;;;;;;;;;4.00;94.40;;;;;;5094519;28;19916;-70
2021/12/07 05:53:39;;;;;;;;;;;4.00;94.40;;;;;;5093846;28;19915;-69
2021/12/07 05:56:04;;;;;;;;;;;4.00;94.40;;;;;;5090271;28;19947;-69
2021/12/07 05:58:30;;;;;;;;;;;4.00;94.50;;;;;;5093300;28;20769;-69
2021/12/07 06:00:57;;;;;;;;;;;4.00;94.40;;;;;;5094526;28;19912;-69
2021/12/07 06:03:24;;;;;;;;;;;4.00;94.40;;;;;;5096251;28;20487;-69
2021/12/07 06:05:49;;;;;;;;;;;4.00;94.40;;;;;;5093477;28;19911;-69
2021/12/07 06:08:15;;;;;;;;;;;4.00;94.40;;;;;;5106319;28;19916;-69
2021/12/07 06:10:41;;;;;;;;;;;4.00;94.40;;;;;;5093722;28;19998;-69
2021/12/07 06:13:06;;;;;;;;;;;4.00;94.40;;;;;;5102896;28;19918;-69
2021/12/07 06:15:34;;;;;;;;;;;4.10;94.40;;;;;;5097182;28;19908;-70
2021/12/07 06:18:00;;;;;;;;;;;4.00;94.40;;;;;;5104927;28;19955;-69
2021/12/07 06:20:25;;;;;;;;;;;4.10;94.40;;;;;;5095687;28;19940;-69
2021/12/07 06:22:51;;;;;;;;;;;4.10;94.40;;;;;;5101169;28;19923;-69
2021/12/07 06:25:16;;;;;;;;;;;4.10;94.40;;;;;;5090324;28;19954;-69
2021/12/07 06:27:42;;;;;;;;;;;4.10;94.40;;;;;;5095479;28;20015;-70
2021/12/07 06:30:08;;;;;;;;;;;4.10;94.40;;;;;;5091800;28;20485;-69
2021/12/07 06:32:34;;;;;;;;;;;4.10;94.40;;;;;;5110781;27;19916;-70
2021/12/07 06:35:00;;;;;;;;;;;4.10;94.60;;;;;;5095688;28;20446;-69
2021/12/07 06:37:25;;;;;;;;;;;4.10;94.40;;;;;;5097731;28;19908;-70
2021/12/07 06:39:51;;;;;;;;;;;4.10;94.40;;;;;;5091339;28;19943;-69
2021/12/07 06:42:17;;;;;;;;;;;4.10;94.40;;;;;;5087342;28;19923;-69
2021/12/07 06:44:42;;;;;;;;;;;4.10;94.40;;;;;;5097646;28;19916;-70
2021/12/07 06:47:08;;;;;;;;;;;4.10;94.40;;;;;;5097927;28;19924;-69
2021/12/07 06:49:34;;;;;;;;;;;4.10;94.50;;;;;;5093634;28;20384;-69
2021/12/07 06:51:59;;;;;;;;;;;4.10;94.40;;;;;;5093976;28;20354;-70
2021/12/07 06:54:25;;;;;;;;;;;4.10;94.40;;;;;;5101004;28;19914;-69
2021/12/07 06:56:51;;;;;;;;;;;4.10;94.40;;;;;;5092792;28;19912;-69
2021/12/07 06:59:18;;;;;;;;;;;4.10;94.40;;;;;;5098374;28;19943;-70
2021/12/07 07:01:43;;;;;;;;;;;4.10;94.40;;;;;;5092203;28;19916;-69
2021/12/07 07:04:11;;;;;;;;;;;4.20;94.40;;;;;;5098824;28;19914;-69
2021/12/07 07:06:37;;;;;;;;;;;4.20;94.40;;;;;;5092433;28;19920;-69
2021/12/07 07:09:03;;;;;;;;;;;4.20;94.40;;;;;;5105281;28;20027;-70
2021/12/07 07:11:29;;;;;;;;;;;4.20;94.40;;;;;;5089652;28;19920;-70
2021/12/07 07:13:54;;;;;;;;;;;4.20;94.50;;;;;;5095538;28;20418;-70
2021/12/07 07:16:20;;;;;;;;;;;4.20;94.40;;;;;;5091731;28;19912;-69
2021/12/07 07:18:45;;;;;;;;;;;4.20;94.50;;;;;;5089805;28;19908;-69
2021/12/07 07:21:11;;;;;;;;;;;4.20;94.40;;;;;;5096545;28;19960;-69
2021/12/07 07:23:38;;;;;;;;;;;4.20;94.50;;;;;;5090065;28;19916;-69
2021/12/07 07:26:03;;;;;;;;;;;4.20;94.40;;;;;;5093201;28;19991;-70
2021/12/07 07:28:29;;;;;;;;;;;4.20;94.50;;;;;;5090701;28;20531;-71
2021/12/07 07:30:55;;;;;;;;;;;4.20;94.50;;;;;;5088022;28;19916;-71
2021/12/07 07:33:21;;;;;;;;;;;4.20;94.50;;;;;;5088499;28;19908;-71
2021/12/07 07:35:47;;;;;;;;;;;4.20;94.50;;;;;;5093791;28;20372;-70
2021/12/07 07:38:13;;;;;;;;;;;4.20;94.50;;;;;;5093262;28;20007;-71
2021/12/07 07:40:39;;;;;;;;;;;4.20;94.50;;;;;;5091747;28;19919;-70
2021/12/07 07:43:04;;;;;;;;;;;4.20;94.50;;;;;;5089804;28;19907;-70
2021/12/07 07:45:30;;;;;;;;;;;4.20;94.60;;;;;;5090680;28;19923;-71
2021/12/07 07:47:56;;;;;;;;;;;4.20;94.50;;;;;;5093405;28;20301;-71
2021/12/07 07:50:22;;;;;;;;;;;4.20;94.50;;;;;;5098802;28;19910;-70
2021/12/07 07:52:47;;;;;;;;;;;4.20;94.50;;;;;;5095628;27;20318;-70
2021/12/07 07:55:13;;;;;;;;;;;4.20;94.50;;;;;;5097804;28;19919;-71
2021/12/07 07:57:38;;;;;;;;;;;4.20;94.60;;;;;;5095016;28;20533;-71
2021/12/07 08:00:05;;;;;;;;;;;4.20;94.60;;;;;;5089589;28;19950;-70
2021/12/07 08:02:31;;;;;;;;;;;4.20;94.50;;;;;;5094494;28;19934;-71
2021/12/07 08:04:56;;;;;;;;;;;4.10;94.50;;;;;;5094483;28;19908;-71
2021/12/07 08:07:22;;;;;;;;;;;4.20;94.50;;;;;;5091069;28;19958;-70
2021/12/07 08:09:47;;;;;;;;;;;4.20;94.50;;;;;;5102452;28;19999;-70
2021/12/07 08:12:13;;;;;;;;;;;4.20;94.50;;;;;;5088271;28;20245;-71
2021/12/07 08:14:38;;;;;;;;;;;4.20;94.50;;;;;;5096576;28;19937;-70
2021/12/07 08:17:04;;;;;;;;;;;4.20;94.50;;;;;;5090256;28;20065;-70
2021/12/07 08:19:30;;;;;;;;;;;4.20;94.50;;;;;;5091427;28;20598;-70
2021/12/07 08:21:56;;;;;;;;;;;4.20;94.50;;;;;;5102381;27;20434;-70
2021/12/07 08:24:21;;;;;;;;;;;4.20;94.50;;;;;;5092731;28;19908;-70
2021/12/07 08:26:46;;;;;;;;;;;4.20;94.50;;;;;;5087318;28;19915;-70
2021/12/07 08:29:12;;;;;;;;;;;4.20;94.60;;;;;;5097887;28;19920;-70
2021/12/07 08:31:37;;;;;;;;;;;4.20;94.50;;;;;;5090608;28;19912;-70
2021/12/07 08:34:03;;;;;;;;;;;4.20;94.40;;;;;;5096676;28;20576;-70
2021/12/07 08:36:29;;;;;;;;;;;4.30;94.50;;;;;;5093239;28;19913;-70
2021/12/07 08:38:55;;;;;;;;;;;4.30;94.40;;;;;;5090898;28;19926;-70
2021/12/07 08:41:20;;;;;;;;;;;4.30;94.50;;;;;;5090428;28;19912;-71
2021/12/07 08:43:46;;;;;;;;;;;4.30;94.50;;;;;;5098309;28;19920;-71
2021/12/07 08:46:13;;;;;;;;;;;4.30;94.50;;;;;;5093672;28;20011;-70
2021/12/07 08:48:40;;;;;;;;;;;4.30;94.50;;;;;;5093393;28;20016;-71
2021/12/07 08:51:06;;;;;;;;;;;4.30;94.50;;;;;;5094544;27;20588;-70
2021/12/07 08:53:32;;;;;;;;;;;4.30;94.50;;;;;;5102925;28;19912;-70
2021/12/07 09:01:28;;;;;;;;;;;4.30;94.50;;;;;;5104835;28;19934;-70
2021/12/07 09:03:54;;;;;;;;;;;4.30;94.50;;;;;;5092968;28;20472;-71
2021/12/07 09:06:20;;;;;;;;;;;4.30;94.50;;;;;;5094076;28;20246;-71
2021/12/07 09:08:45;;;;;;;;;;;4.30;94.50;;;;;;5091918;28;19920;-70
2021/12/07 09:11:12;;;;;;;;;;;4.30;94.40;;;;;;5094650;28;19909;-71
2021/12/07 09:13:39;;;;;;;;;;;4.30;94.40;;;;;;5092876;28;19920;-70
2021/12/07 09:16:05;;;;;;;;;;;4.30;94.40;;;;;;5107411;28;20396;-71
2021/12/07 09:18:31;;;;;;;;;;;4.40;94.50;;;;;;5093472;28;20007;-71
2021/12/07 09:20:57;;;;;;;;;;;4.30;94.40;;;;;;5092861;28;19912;-70
2021/12/07 09:23:23;;;;;;;;;;;4.40;94.40;;;;;;5094058;28;20276;-71
2021/12/07 09:25:49;;;;;;;;;;;4.40;94.40;;;;;;5096182;28;19919;-70
2021/12/07 09:28:14;;;;;;;;;;;4.40;94.40;;;;;;5095312;28;19915;-70
2021/12/07 09:30:41;;;;;;;;;;;4.40;94.40;;;;;;5095328;28;19920;-71
2021/12/07 09:33:06;;;;;;;;;;;4.40;94.40;;;;;;5087513;28;19908;-71
2021/12/07 09:35:33;;;;;;;;;;;4.40;94.40;;;;;;5084391;28;19971;-71
2021/12/07 09:37:59;;;;;;;;;;;4.40;94.40;;;;;;5090991;28;20442;-70
2021/12/07 09:40:28;;;;;;;;;;;4.40;94.40;;;;;;5096177;28;19916;-71
2021/12/07 09:42:54;;;;;;;;;;;4.50;94.40;;;;;;5091636;28;20254;-71
2021/12/07 09:45:20;;;;;;;;;;;4.40;94.40;;;;;;5092438;28;19916;-71
2021/12/07 09:47:47;;;;;;;;;;;4.40;94.40;;;;;;5098674;28;19998;-71
2021/12/07 09:50:16;;;;;;;;;;;4.40;94.40;;;;;;5097686;28;19916;-71
2021/12/07 09:52:43;;;;;;;;;;;4.40;94.40;;;;;;5094333;28;19915;-71
2021/12/07 09:55:09;;;;;;;;;;;4.40;94.40;;;;;;5092341;28;19962;-71
2021/12/07 09:57:35;;;;;;;;;;;4.40;94.40;;;;;;5090357;28;19937;-71
2021/12/07 10:00:02;;;;;;;;;;;4.40;94.40;;;;;;5086534;28;20000;-70
2021/12/07 10:02:27;;;;;;;;;;;4.40;94.40;;;;;;5104531;28;19915;-71
2021/12/07 10:04:53;;;;;;;;;;;4.40;94.40;;;;;;5095322;28;19915;-71
2021/12/07 10:07:19;;;;;;;;;;;4.40;94.40;;;;;;5100711;28;19908;-70
2021/12/07 10:09:45;;;;;;;;;;;4.40;94.40;;;;;;5093652;28;20380;-70
2021/12/07 10:12:16;;;;;;;;;;;4.40;94.40;;;;;;5114203;27;19916;-70
2021/12/07 10:14:42;;;;;;;;;;;4.50;94.30;;;;;;5094200;28;20041;-71
2021/12/07 10:17:08;;;;;;;;;;;4.50;94.30;;;;;;5103632;28;19952;-71
2021/12/07 10:19:35;;;;;;;;;;;4.50;94.30;;;;;;5093510;28;19919;-72
2021/12/07 10:22:03;;;;;;;;;;;4.50;94.30;;;;;;5094600;28;20042;-70
2021/12/07 10:24:54;;;;;;;;;;;4.60;94.30;;;;;;5089887;28;19919;-71
2021/12/07 10:27:36;;;;;;;;;;;4.60;94.60;;;;;;5081521;28;19915;-71
2021/12/07 10:30:07;;;;;;;;;;;4.60;94.30;;;;;;5093169;28;20011;-71
2021/12/07 10:32:33;;;;;;;;;;;4.60;94.30;;;;;;5097253;28;19991;-71
2021/12/07 10:34:59;;;;;;;;;;;4.60;94.30;;;;;;5097234;28;19999;-71
2021/12/07 10:37:24;;;;;;;;;;;4.60;94.30;;;;;;5093671;28;19995;-71
2021/12/07 10:39:51;;;;;;;;;;;4.60;94.20;;;;;;5091492;28;19947;-71
2021/12/07 10:42:19;;;;;;;;;;;4.60;94.30;;;;;;5094374;28;19912;-71
2021/12/07 10:44:44;;;;;;;;;;;4.60;94.30;;;;;;5099814;28;20327;-70
2021/12/07 10:47:14;;;;;;;;;;;4.70;94.30;;;;;;5091562;28;19960;-71
2021/12/07 10:49:40;;;;;;;;;;;4.70;94.20;;;;;;5094121;28;19920;-71
2021/12/07 10:52:09;;;;;;;;;;;4.70;94.20;;;;;;5091915;28;19970;-70
2021/12/07 10:54:37;;;;;;;;;;;4.70;94.20;;;;;;5100922;27;19912;-71
2021/12/07 10:57:04;;;;;;;;;;;4.70;94.30;;;;;;5082907;28;19912;-70
2021/12/07 10:59:30;;;;;;;;;;;4.70;94.20;;;;;;5123549;27;19916;-72
2021/12/07 11:01:56;;;;;;;;;;;4.80;94.20;;;;;;5088468;28;19953;-71
2021/12/07 11:04:24;;;;;;;;;;;4.70;94.20;;;;;;5089592;28;20380;-71
2021/12/07 11:07:02;;;;;;;;;;;4.80;94.20;;;;;;5093768;28;19953;-71
2021/12/07 11:09:27;;;;;;;;;;;4.80;94.20;;;;;;5099584;28;20296;-71
2021/12/07 11:12:06;;;;;;;;;;;4.80;94.20;;;;;;5092275;28;19916;-71
2021/12/07 11:14:48;;;;;;;;;;;4.80;94.20;;;;;;5092538;28;19923;-71
2021/12/07 11:17:14;;;;;;;;;;;4.80;94.30;;;;;;5087641;28;19943;-71
2021/12/07 11:19:39;;;;;;;;;;;4.80;94.30;;;;;;5088168;28;19952;-71
2021/12/07 11:22:05;;;;;;;;;;;4.80;94.20;;;;;;5089599;28;20495;-71
2021/12/07 11:24:48;;;;;;;;;;;4.80;94.30;;;;;;5086067;28;19927;-71
2021/12/07 11:30:11;;;;;;;;;;;4.80;94.30;;;;;;5081423;28;20300;-71
2021/12/07 11:32:40;;;;;;;;;;;4.80;94.30;;;;;;5091937;28;20287;-71
2021/12/07 11:35:11;;;;;;;;;;;4.80;94.30;;;;;;5092989;28;19916;-70
2021/12/07 11:37:38;;;;;;;;;;;4.80;94.20;;;;;;5094801;28;20425;-71
2021/12/07 11:40:05;;;;;;;;;;;4.80;94.30;;;;;;5087552;28;19923;-71
2021/12/07 11:42:36;;;;;;;;;;;4.80;94.30;;;;;;5087891;28;19916;-71
2021/12/07 11:45:02;;;;;;;;;;;4.80;94.30;;;;;;5089529;28;19924;-71
2021/12/07 11:47:33;;;;;;;;;;;4.80;94.30;;;;;;5087419;28;20277;-71
2021/12/07 11:50:00;;;;;;;;;;;4.90;94.30;;;;;;5085353;28;19996;-71
2021/12/07 11:52:26;;;;;;;;;;;4.90;94.30;;;;;;5082756;28;19947;-71
2021/12/07 11:54:54;;;;;;;;;;;4.90;94.30;;;;;;5087321;28;20292;-71
2021/12/07 11:57:20;;;;;;;;;;;4.90;94.20;;;;;;5096273;28;20012;-71
2021/12/07 11:59:47;;;;;;;;;;;4.90;94.20;;;;;;5089989;28;19927;-71
2021/12/07 12:02:12;;;;;;;;;;;4.90;94.20;;;;;;5076359;28;19915;-71
2021/12/07 12:04:39;;;;;;;;;;;4.90;94.10;;;;;;5087424;28;19912;-71
2021/12/07 12:07:08;;;;;;;;;;;5.00;94.20;;;;;;5097632;28;19951;-71
2021/12/07 12:09:35;;;;;;;;;;;4.90;94.20;;;;;;5089186;28;20011;-71
2021/12/07 12:12:15;;;;;;;;;;;5.00;94.20;;;;;;5092289;28;19914;-71
2021/12/07 12:14:46;;;;;;;;;;;5.00;94.40;;;;;;5091954;28;19920;-71
2021/12/07 12:17:18;;;;;;;;;;;5.00;94.10;;;;;;5080130;28;20372;-71
2021/12/07 12:20:02;;;;;;;;;;;5.00;94.20;;;;;;5087363;28;19964;-71
2021/12/07 12:22:39;;;;;;;;;;;5.00;94.20;;;;;;5086035;28;19948;-71
2021/12/07 12:25:07;;;;;;;;;;;5.00;94.20;;;;;;5088406;28;19916;-71
2021/12/07 12:27:34;;;;;;;;;;;5.00;94.20;;;;;;5090179;28;19995;-71
2021/12/07 12:30:03;;;;;;;;;;;5.00;94.20;;;;;;5094580;28;20003;-71
2021/12/07 12:32:42;;;;;;;;;;;5.00;94.50;;;;;;5096861;28;20319;-71
2021/12/07 12:35:08;;;;;;;;;;;5.00;94.10;;;;;;5093628;28;19912;-71
2021/12/07 12:37:34;;;;;;;;;;;5.10;94.10;;;;;;5088775;28;20388;-71
2021/12/07 12:40:10;;;;;;;;;;;5.10;94.10;;;;;;5093401;28;19950;-71
2021/12/07 12:42:36;;;;;;;;;;;5.10;94.20;;;;;;5081719;28;19920;-71
2021/12/07 12:45:22;;;;;;;;;;;5.10;94.10;;;;;;5090480;28;19920;-71
2021/12/07 12:47:54;;;;;;;;;;;5.20;94.00;;;;;;5086000;28;19920;-71
2021/12/07 12:50:30;;;;;;;;;;;5.20;94.10;;;;;;5088762;28;19939;-71
2021/12/07 12:53:05;;;;;;;;;;;5.20;94.00;;;;;;5087987;28;20335;-71
2021/12/07 12:55:34;;;;;;;;;;;5.20;94.00;;;;;;5103880;28;19935;-71
2021/12/07 12:58:00;;;;;;;;;;;5.20;94.00;;;;;;5091949;28;19930;-71
2021/12/07 13:00:46;;;;;;;;;;;5.20;94.00;;;;;;5089119;28;19943;-71
2021/12/07 13:03:12;;;;;;;;;;;5.20;94.00;;;;;;5082824;28;19912;-71
2021/12/07 13:05:42;;;;;;;;;;;5.20;94.00;;;;;;5084598;28;20376;-71
2021/12/07 13:08:13;;;;;;;;;;;5.30;94.10;;;;;;5086200;28;20009;-71
2021/12/07 13:10:55;;;;;;;;;;;5.30;94.00;;;;;;5076199;28;21208;-71
2021/12/07 13:13:38;;;;;;;;;;;5.30;94.00;;;;;;5086206;28;19913;-71
2021/12/07 13:16:15;;;;;;;;;;;5.30;94.00;;;;;;5087954;28;20429;-71
2021/12/07 13:18:42;;;;;;;;;;;5.30;94.00;;;;;;5100202;28;19911;-71
2021/12/07 13:21:22;;;;;;;;;;;5.30;94.00;;;;;;5094370;28;20384;-71
2021/12/07 13:24:02;;;;;;;;;;;5.30;94.00;;;;;;5089643;28;20466;-71
2021/12/07 13:26:32;;;;;;;;;;;5.30;94.10;;;;;;5092538;28;19912;-71
2021/12/07 13:29:03;;;;;;;;;;;5.30;94.00;;;;;;5098911;28;19965;-71
2021/12/07 13:31:35;;;;;;;;;;;5.30;94.10;;;;;;5092056;28;19936;-71
2021/12/07 13:34:01;;;;;;;;;;;5.30;94.10;;;;;;5092819;28;19912;-71
2021/12/07 13:36:27;;;;;;;;;;;5.30;94.00;;;;;;5090164;28;19912;-71
2021/12/07 13:38:52;;;;;;;;;;;5.30;94.00;;;;;;5101928;28;19992;-71
2021/12/07 13:41:19;;;;;;;;;;;5.30;94.10;;;;;;5089959;28;19947;-71
2021/12/07 13:43:46;;;;;;;;;;;5.30;94.10;;;;;;5086405;28;19978;-71
2021/12/07 13:46:12;;;;;;;;;;;5.30;94.10;;;;;;5091740;28;20421;-71
2021/12/07 13:48:38;;;;;;;;;;;5.20;94.10;;;;;;5081258;28;19915;-71
2021/12/07 13:51:04;;;;;;;;;;;5.20;94.10;;;;;;5090819;28;19920;-71
2021/12/07 13:53:30;;;;;;;;;;;5.20;94.10;;;;;;5081258;28;19908;-71
2021/12/07 13:55:55;;;;;;;;;;;5.20;94.20;;;;;;5089718;28;20328;-71
2021/12/07 13:58:21;;;;;;;;;;;5.20;94.20;;;;;;5091529;28;20307;-71
2021/12/07 14:00:46;;;;;;;;;;;5.20;94.20;;;;;;5093965;28;19916;-71
2021/12/07 14:03:14;;;;;;;;;;;5.20;94.20;;;;;;5101266;28;19912;-71
2021/12/07 14:05:42;;;;;;;;;;;5.20;94.20;;;;;;5094570;28;19926;-71
2021/12/07 14:08:12;;;;;;;;;;;5.20;94.20;;;;;;5088404;28;19932;-71
2021/12/07 14:10:41;;;;;;;;;;;5.20;94.50;;;;;;5092030;28;20350;-71
2021/12/07 14:13:06;;;;;;;;;;;5.20;94.20;;;;;;5098522;28;20455;-71
2021/12/07 14:15:33;;;;;;;;;;;5.20;94.20;;;;;;5088275;28;19927;-71
2021/12/07 14:18:00;;;;;;;;;;;5.20;94.20;;;;;;5080466;28;19909;-71
2021/12/07 14:20:49;;;;;;;;;;;5.10;94.20;;;;;;5087318;28;20460;-71
2021/12/07 14:23:35;;;;;;;;;;;5.20;94.30;;;;;;5091011;28;20483;-71
2021/12/07 14:26:01;;;;;;;;;;;5.10;94.30;;;;;;5100672;27;19919;-71
2021/12/07 14:28:43;;;;;;;;;;;5.10;94.30;;;;;;5095149;28;19912;-71
2021/12/07 14:31:12;;;;;;;;;;;5.10;94.30;;;;;;5085765;28;19912;-71
2021/12/07 14:33:39;;;;;;;;;;;5.10;94.30;;;;;;5086137;28;19948;-71
2021/12/07 14:36:05;;;;;;;;;;;5.10;94.30;;;;;;5088401;28;20277;-71
2021/12/07 14:38:31;;;;;;;;;;;5.00;94.20;;;;;;5092231;28;19916;-71
2021/12/07 14:40:59;;;;;;;;;;;5.00;94.30;;;;;;5086344;28;19957;-71
2021/12/07 14:43:25;;;;;;;;;;;5.00;94.30;;;;;;5087141;28;19997;-71
2021/12/07 14:45:50;;;;;;;;;;;5.00;94.30;;;;;;5086477;28;19970;-71
2021/12/07 14:48:16;;;;;;;;;;;5.00;94.30;;;;;;5085555;28;19920;-71
2021/12/07 14:50:41;;;;;;;;;;;5.00;94.30;;;;;;5089035;28;19919;-71
2021/12/07 14:53:07;;;;;;;;;;;5.00;94.30;;;;;;5093480;28;19923;-71
2021/12/07 14:55:36;;;;;;;;;;;5.00;94.30;;;;;;5086654;28;20403;-71
2021/12/07 14:58:03;;;;;;;;;;;4.90;94.30;;;;;;5095776;28;20393;-71
2021/12/07 15:00:29;;;;;;;;;;;4.90;94.30;;;;;;5096924;28;20346;-71
2021/12/07 15:02:54;;;;;;;;;;;4.90;94.30;;;;;;5091191;28;20038;-71
2021/12/07 15:05:20;;;;;;;;;;;4.90;94.40;;;;;;5089677;28;19908;-71
2021/12/07 15:07:45;;;;;;;;;;;4.90;94.40;;;;;;5092156;28;19916;-71
2021/12/07 15:10:16;;;;;;;;;;;4.80;94.60;;;;;;5091604;28;19912;-71
2021/12/07 15:12:43;;;;;;;;;;;4.80;94.30;;;;;;5091441;28;19926;-71
2021/12/07 15:15:09;;;;;;;;;;;4.80;94.30;;;;;;5091887;28;20393;-71
2021/12/07 15:17:35;;;;;;;;;;;4.80;94.30;;;;;;5090017;28;20001;-71
2021/12/07 15:20:04;;;;;;;;;;;4.70;94.20;;;;;;5091466;28;19982;-71
2021/12/07 15:22:29;;;;;;;;;;;4.70;94.30;;;;;;5091024;28;19968;-71
2021/12/07 15:24:55;;;;;;;;;;;4.80;94.40;;;;;;5093486;28;20283;-71
2021/12/07 15:27:21;;;;;;;;;;;4.70;94.30;;;;;;5084718;28;19991;-71
2021/12/07 15:29:49;;;;;;;;;;;4.70;94.30;;;;;;5086012;28;19912;-71
2021/12/07 15:32:15;;;;;;;;;;;4.70;94.30;;;;;;5086866;28;19923;-70
2021/12/07 15:34:42;;;;;;;;;;;4.70;94.30;;;;;;5091096;28;19935;-71
2021/12/07 15:37:09;;;;;;;;;;;4.60;94.30;;;;;;5085044;28;19923;-71
2021/12/07 15:39:36;;;;;;;;;;;4.60;94.30;;;;;;5089725;28;19919;-70
2021/12/07 15:42:06;;;;;;;;;;;4.60;94.30;;;;;;5089513;28;19965;-70
2021/12/07 15:44:37;;;;;;;;;;;4.60;94.30;;;;;;5090754;28;20365;-71
2021/12/07 15:47:09;;;;;;;;;;;4.60;94.30;;;;;;5087500;28;19912;-71
2021/12/07 15:49:36;;;;;;;;;;;4.60;94.30;;;;;;5082548;28;19954;-71
2021/12/07 15:52:06;;;;;;;;;;;4.50;94.30;;;;;;5083799;28;20497;-71
2021/12/07 15:54:31;;;;;;;;;;;4.50;94.30;;;;;;5088098;28;20537;-71
2021/12/07 15:57:04;;;;;;;;;;;4.50;94.30;;;;;;5085720;28;19927;-71
2021/12/07 15:59:30;;;;;;;;;;;4.50;94.30;;;;;;5090245;28;20272;-70
2021/12/07 16:01:57;;;;;;;;;;;4.50;94.30;;;;;;5093113;28;19912;-71
2021/12/07 16:04:41;;;;;;;;;;;4.50;94.30;;;;;;5102855;28;19950;-71
2021/12/07 16:07:22;;;;;;;;;;;4.50;94.30;;;;;;5090000;28;20010;-70
2021/12/07 16:10:03;;;;;;;;;;;4.50;94.30;;;;;;5089082;28;19920;-70
2021/12/07 16:12:28;;;;;;;;;;;4.40;94.30;;;;;;5088328;28;20002;-71
2021/12/07 16:15:14;;;;;;;;;;;4.40;94.20;;;;;;5085386;28;20024;-70
2021/12/07 16:17:40;;;;;;;;;;;4.40;94.30;;;;;;5085306;28;19912;-70